sensor_id;sensor_type;location;lat;lon;timestamp;P1;durP1;ratioP1;P2;durP2;ratioP2
24559;SDS011;12727;49.934;8.656;2022-09-09T00:00:52;2.65;;;0.77;;
24559;SDS011;12727;49.934;8.656;2022-09-09T00:03:31;2.42;;;0.68;;
24559;SDS011;12727;49.934;8.656;2022-09-09T00:06:22;3.13;;;0.60;;
24559;SDS011;12727;49.934;8.656;2022-09-09T00:09:01;2.95;;;0.80;;
24559;SDS011;12727;49.934;8.656;2022-09-09T00:17:09;1.42;;;0.70;;
24559;SDS011;12727;49.934;8.656;2022-09-09T00:19:52;1.88;;;0.60;;
24559;SDS011;12727;49.934;8.656;2022-09-09T00:22:28;3.42;;;0.65;;
24559;SDS011;12727;49.934;8.656;2022-09-09T00:25:21;2.67;;;0.82;;
24559;SDS011;12727;49.934;8.656;2022-09-09T00:27:51;2.67;;;0.75;;
24559;SDS011;12727;49.934;8.656;2022-09-09T00:32:44;2.13;;;0.50;;
24559;SDS011;12727;49.934;8.656;2022-09-09T00:35:25;5.95;;;1.10;;
24559;SDS011;12727;49.934;8.656;2022-09-09T00:37:55;3.08;;;0.80;;
24559;SDS011;12727;49.934;8.656;2022-09-09T00:40:28;3.03;;;0.98;;
24559;SDS011;12727;49.934;8.656;2022-09-09T00:43:08;3.65;;;0.90;;
24559;SDS011;12727;49.934;8.656;2022-09-09T00:48:43;3.65;;;0.90;;
24559;SDS011;12727;49.934;8.656;2022-09-09T00:54:28;3.00;;;0.90;;
24559;SDS011;12727;49.934;8.656;2022-09-09T00:57:13;2.53;;;0.63;;
24559;SDS011;12727;49.934;8.656;2022-09-09T00:59:47;5.45;;;0.80;;
24559;SDS011;12727;49.934;8.656;2022-09-09T01:02:21;6.53;;;0.77;;
24559;SDS011;12727;49.934;8.656;2022-09-09T01:04:53;5.28;;;1.00;;
24559;SDS011;12727;49.934;8.656;2022-09-09T01:07:19;6.35;;;1.10;;
24559;SDS011;12727;49.934;8.656;2022-09-09T01:09:51;4.63;;;0.95;;
24559;SDS011;12727;49.934;8.656;2022-09-09T01:12:25;4.43;;;0.90;;
24559;SDS011;12727;49.934;8.656;2022-09-09T01:15:03;4.93;;;0.90;;
24559;SDS011;12727;49.934;8.656;2022-09-09T01:18:05;2.70;;;0.80;;
24559;SDS011;12727;49.934;8.656;2022-09-09T01:26:42;4.25;;;1.08;;
24559;SDS011;12727;49.934;8.656;2022-09-09T01:29:11;3.60;;;0.90;;
24559;SDS011;12727;49.934;8.656;2022-09-09T01:31:40;3.25;;;0.88;;
24559;SDS011;12727;49.934;8.656;2022-09-09T01:34:24;3.00;;;0.73;;
24559;SDS011;12727;49.934;8.656;2022-09-09T01:37:08;2.85;;;1.00;;
24559;SDS011;12727;49.934;8.656;2022-09-09T01:39:35;4.43;;;0.80;;
24559;SDS011;12727;49.934;8.656;2022-09-09T01:42:02;2.83;;;0.90;;
24559;SDS011;12727;49.934;8.656;2022-09-09T01:44:31;4.55;;;0.90;;
24559;SDS011;12727;49.934;8.656;2022-09-09T01:46:57;2.97;;;1.00;;
24559;SDS011;12727;49.934;8.656;2022-09-09T01:49:22;4.70;;;1.10;;
24559;SDS011;12727;49.934;8.656;2022-09-09T01:51:52;4.55;;;1.30;;
24559;SDS011;12727;49.934;8.656;2022-09-09T01:54:19;3.53;;;0.90;;
24559;SDS011;12727;49.934;8.656;2022-09-09T01:56:49;4.78;;;0.95;;
24559;SDS011;12727;49.934;8.656;2022-09-09T01:59:45;1.98;;;0.90;;
24559;SDS011;12727;49.934;8.656;2022-09-09T02:05:01;2.67;;;1.08;;
24559;SDS011;12727;49.934;8.656;2022-09-09T02:07:56;3.92;;;1.17;;
24559;SDS011;12727;49.934;8.656;2022-09-09T02:10:34;4.28;;;0.80;;
24559;SDS011;12727;49.934;8.656;2022-09-09T02:13:22;2.97;;;1.10;;
24559;SDS011;12727;49.934;8.656;2022-09-09T02:19:15;3.50;;;1.15;;
24559;SDS011;12727;49.934;8.656;2022-09-09T02:21:29;4.30;;;1.00;;
24559;SDS011;12727;49.934;8.656;2022-09-09T02:23:56;5.43;;;1.05;;
24559;SDS011;12727;49.934;8.656;2022-09-09T02:26:29;5.88;;;1.10;;
24559;SDS011;12727;49.934;8.656;2022-09-09T02:28:57;5.03;;;1.08;;
24559;SDS011;12727;49.934;8.656;2022-09-09T02:31:26;5.10;;;1.02;;
24559;SDS011;12727;49.934;8.656;2022-09-09T02:33:57;3.17;;;0.87;;
24559;SDS011;12727;49.934;8.656;2022-09-09T02:36:26;3.67;;;0.77;;
24559;SDS011;12727;49.934;8.656;2022-09-09T02:38:54;2.72;;;0.90;;
24559;SDS011;12727;49.934;8.656;2022-09-09T02:41:23;4.28;;;1.10;;
24559;SDS011;12727;49.934;8.656;2022-09-09T02:43:53;3.08;;;0.70;;
24559;SDS011;12727;49.934;8.656;2022-09-09T02:46:24;4.65;;;1.05;;
24559;SDS011;12727;49.934;8.656;2022-09-09T02:49:19;2.53;;;0.80;;
24559;SDS011;12727;49.934;8.656;2022-09-09T02:54:34;2.67;;;0.95;;
24559;SDS011;12727;49.934;8.656;2022-09-09T02:57:11;1.90;;;0.70;;
24559;SDS011;12727;49.934;8.656;2022-09-09T02:59:39;5.72;;;0.90;;
24559;SDS011;12727;49.934;8.656;2022-09-09T03:02:06;4.57;;;0.90;;
24559;SDS011;12727;49.934;8.656;2022-09-09T03:04:32;2.38;;;0.70;;
24559;SDS011;12727;49.934;8.656;2022-09-09T03:06:58;4.97;;;0.85;;
24559;SDS011;12727;49.934;8.656;2022-09-09T03:09:24;2.40;;;0.60;;
24559;SDS011;12727;49.934;8.656;2022-09-09T03:11:50;4.07;;;0.70;;
24559;SDS011;12727;49.934;8.656;2022-09-09T03:14:16;2.42;;;0.90;;
24559;SDS011;12727;49.934;8.656;2022-09-09T03:16:46;4.90;;;0.98;;
24559;SDS011;12727;49.934;8.656;2022-09-09T03:19:12;2.30;;;0.70;;
24559;SDS011;12727;49.934;8.656;2022-09-09T03:21:37;3.72;;;1.00;;
24559;SDS011;12727;49.934;8.656;2022-09-09T03:24:03;3.22;;;0.90;;
24559;SDS011;12727;49.934;8.656;2022-09-09T03:26:29;5.38;;;0.90;;
24559;SDS011;12727;49.934;8.656;2022-09-09T03:28:55;6.07;;;0.80;;
24559;SDS011;12727;49.934;8.656;2022-09-09T03:31:21;3.63;;;1.20;;
24559;SDS011;12727;49.934;8.656;2022-09-09T03:33:47;6.25;;;1.10;;
24559;SDS011;12727;49.934;8.656;2022-09-09T03:36:13;6.07;;;1.13;;
24559;SDS011;12727;49.934;8.656;2022-09-09T03:38:39;5.60;;;1.20;;
24559;SDS011;12727;49.934;8.656;2022-09-09T03:41:06;3.00;;;0.80;;
24559;SDS011;12727;49.934;8.656;2022-09-09T03:43:32;4.38;;;1.10;;
24559;SDS011;12727;49.934;8.656;2022-09-09T03:45:58;2.30;;;0.90;;
24559;SDS011;12727;49.934;8.656;2022-09-09T03:48:24;3.92;;;1.05;;
24559;SDS011;12727;49.934;8.656;2022-09-09T03:50:51;4.28;;;1.00;;
24559;SDS011;12727;49.934;8.656;2022-09-09T03:53:18;4.25;;;1.02;;
24559;SDS011;12727;49.934;8.656;2022-09-09T03:55:45;4.55;;;0.93;;
24559;SDS011;12727;49.934;8.656;2022-09-09T03:58:15;4.75;;;1.00;;
24559;SDS011;12727;49.934;8.656;2022-09-09T04:00:43;3.92;;;1.20;;
24559;SDS011;12727;49.934;8.656;2022-09-09T04:03:09;6.32;;;1.25;;
24559;SDS011;12727;49.934;8.656;2022-09-09T04:05:35;4.28;;;1.10;;
24559;SDS011;12727;49.934;8.656;2022-09-09T04:08:04;4.43;;;0.98;;
24559;SDS011;12727;49.934;8.656;2022-09-09T04:10:33;6.35;;;1.02;;
24559;SDS011;12727;49.934;8.656;2022-09-09T04:13:01;4.88;;;0.80;;
24559;SDS011;12727;49.934;8.656;2022-09-09T04:15:27;3.90;;;0.80;;
24559;SDS011;12727;49.934;8.656;2022-09-09T04:17:53;4.97;;;0.80;;
24559;SDS011;12727;49.934;8.656;2022-09-09T04:20:19;5.07;;;1.13;;
24559;SDS011;12727;49.934;8.656;2022-09-09T04:22:44;7.65;;;1.30;;
24559;SDS011;12727;49.934;8.656;2022-09-09T04:25:10;4.05;;;1.17;;
24559;SDS011;12727;49.934;8.656;2022-09-09T04:27:35;4.15;;;1.25;;
24559;SDS011;12727;49.934;8.656;2022-09-09T04:30:01;4.18;;;1.45;;
24559;SDS011;12727;49.934;8.656;2022-09-09T04:32:27;3.90;;;1.20;;
24559;SDS011;12727;49.934;8.656;2022-09-09T04:34:52;3.92;;;1.10;;
24559;SDS011;12727;49.934;8.656;2022-09-09T04:37:18;6.13;;;0.93;;
24559;SDS011;12727;49.934;8.656;2022-09-09T04:39:43;2.75;;;0.90;;
24559;SDS011;12727;49.934;8.656;2022-09-09T04:42:10;4.43;;;1.20;;
24559;SDS011;12727;49.934;8.656;2022-09-09T04:44:37;5.90;;;1.50;;
24559;SDS011;12727;49.934;8.656;2022-09-09T04:47:04;2.78;;;0.85;;
24559;SDS011;12727;49.934;8.656;2022-09-09T04:49:29;4.70;;;1.10;;
24559;SDS011;12727;49.934;8.656;2022-09-09T04:51:56;4.60;;;1.02;;
24559;SDS011;12727;49.934;8.656;2022-09-09T04:54:22;5.80;;;1.15;;
24559;SDS011;12727;49.934;8.656;2022-09-09T04:56:49;6.47;;;1.20;;
24559;SDS011;12727;49.934;8.656;2022-09-09T04:59:15;4.80;;;1.00;;
24559;SDS011;12727;49.934;8.656;2022-09-09T05:01:41;4.30;;;1.20;;
24559;SDS011;12727;49.934;8.656;2022-09-09T05:04:07;5.50;;;0.93;;
24559;SDS011;12727;49.934;8.656;2022-09-09T05:06:33;4.25;;;0.90;;
24559;SDS011;12727;49.934;8.656;2022-09-09T05:09:01;4.82;;;1.00;;
24559;SDS011;12727;49.934;8.656;2022-09-09T05:11:27;7.75;;;1.08;;
24559;SDS011;12727;49.934;8.656;2022-09-09T05:13:55;3.90;;;1.05;;
24559;SDS011;12727;49.934;8.656;2022-09-09T05:16:21;7.45;;;1.45;;
24559;SDS011;12727;49.934;8.656;2022-09-09T05:18:47;4.38;;;1.17;;
24559;SDS011;12727;49.934;8.656;2022-09-09T05:21:15;5.43;;;0.80;;
24559;SDS011;12727;49.934;8.656;2022-09-09T05:23:42;3.92;;;1.00;;
24559;SDS011;12727;49.934;8.656;2022-09-09T05:26:12;4.15;;;1.10;;
24559;SDS011;12727;49.934;8.656;2022-09-09T05:28:39;5.88;;;0.90;;
24559;SDS011;12727;49.934;8.656;2022-09-09T05:31:06;5.68;;;0.82;;
24559;SDS011;12727;49.934;8.656;2022-09-09T05:33:33;6.05;;;1.00;;
24559;SDS011;12727;49.934;8.656;2022-09-09T05:36:02;5.03;;;1.05;;
24559;SDS011;12727;49.934;8.656;2022-09-09T05:38:36;3.80;;;0.95;;
24559;SDS011;12727;49.934;8.656;2022-09-09T05:41:03;4.60;;;0.93;;
24559;SDS011;12727;49.934;8.656;2022-09-09T05:43:29;4.07;;;0.60;;
24559;SDS011;12727;49.934;8.656;2022-09-09T05:46:02;3.35;;;1.10;;
24559;SDS011;12727;49.934;8.656;2022-09-09T05:48:34;2.70;;;0.68;;
24559;SDS011;12727;49.934;8.656;2022-09-09T05:51:02;3.70;;;0.90;;
24559;SDS011;12727;49.934;8.656;2022-09-09T05:53:30;3.88;;;1.08;;
24559;SDS011;12727;49.934;8.656;2022-09-09T05:56:08;4.03;;;0.70;;
24559;SDS011;12727;49.934;8.656;2022-09-09T05:58:39;3.03;;;1.05;;
24559;SDS011;12727;49.934;8.656;2022-09-09T06:01:10;4.93;;;0.88;;
24559;SDS011;12727;49.934;8.656;2022-09-09T06:03:38;3.20;;;0.82;;
24559;SDS011;12727;49.934;8.656;2022-09-09T06:06:08;3.17;;;0.80;;
24559;SDS011;12727;49.934;8.656;2022-09-09T06:08:37;4.03;;;0.90;;
24559;SDS011;12727;49.934;8.656;2022-09-09T06:11:05;3.38;;;0.80;;
24559;SDS011;12727;49.934;8.656;2022-09-09T06:13:35;2.28;;;0.88;;
24559;SDS011;12727;49.934;8.656;2022-09-09T06:16:08;3.67;;;0.80;;
24559;SDS011;12727;49.934;8.656;2022-09-09T06:18:36;4.35;;;0.70;;
24559;SDS011;12727;49.934;8.656;2022-09-09T06:21:03;4.90;;;0.75;;
24559;SDS011;12727;49.934;8.656;2022-09-09T06:23:31;2.90;;;0.75;;
24559;SDS011;12727;49.934;8.656;2022-09-09T06:26:31;5.38;;;0.70;;
24559;SDS011;12727;49.934;8.656;2022-09-09T06:28:51;3.42;;;0.80;;
24559;SDS011;12727;49.934;8.656;2022-09-09T06:31:19;3.95;;;0.70;;
24559;SDS011;12727;49.934;8.656;2022-09-09T06:33:47;2.63;;;0.70;;
24559;SDS011;12727;49.934;8.656;2022-09-09T06:36:24;2.97;;;0.70;;
24559;SDS011;12727;49.934;8.656;2022-09-09T06:38:51;4.10;;;0.85;;
24559;SDS011;12727;49.934;8.656;2022-09-09T06:41:18;5.53;;;0.77;;
24559;SDS011;12727;49.934;8.656;2022-09-09T06:43:46;2.38;;;0.60;;
24559;SDS011;12727;49.934;8.656;2022-09-09T06:48:39;4.15;;;0.80;;
24559;SDS011;12727;49.934;8.656;2022-09-09T06:51:07;3.40;;;0.52;;
24559;SDS011;12727;49.934;8.656;2022-09-09T06:53:38;3.63;;;0.80;;
24559;SDS011;12727;49.934;8.656;2022-09-09T06:58:39;5.13;;;1.00;;
24559;SDS011;12727;49.934;8.656;2022-09-09T07:01:08;4.55;;;0.90;;
24559;SDS011;12727;49.934;8.656;2022-09-09T07:03:34;2.95;;;0.60;;
24559;SDS011;12727;49.934;8.656;2022-09-09T07:06:00;5.43;;;0.90;;
24559;SDS011;12727;49.934;8.656;2022-09-09T07:08:27;7.38;;;1.27;;
24559;SDS011;12727;49.934;8.656;2022-09-09T07:10:53;4.85;;;0.80;;
24559;SDS011;12727;49.934;8.656;2022-09-09T07:13:23;4.97;;;1.10;;
24559;SDS011;12727;49.934;8.656;2022-09-09T07:15:50;5.35;;;0.80;;
24559;SDS011;12727;49.934;8.656;2022-09-09T07:18:18;3.55;;;0.60;;
24559;SDS011;12727;49.934;8.656;2022-09-09T07:20:53;4.10;;;0.98;;
24559;SDS011;12727;49.934;8.656;2022-09-09T07:23:20;4.13;;;0.90;;
24559;SDS011;12727;49.934;8.656;2022-09-09T07:25:47;3.92;;;0.65;;
24559;SDS011;12727;49.934;8.656;2022-09-09T07:28:13;4.20;;;1.00;;
24559;SDS011;12727;49.934;8.656;2022-09-09T07:30:39;4.07;;;0.90;;
24559;SDS011;12727;49.934;8.656;2022-09-09T07:33:05;2.88;;;0.95;;
24559;SDS011;12727;49.934;8.656;2022-09-09T07:35:31;3.88;;;0.95;;
24559;SDS011;12727;49.934;8.656;2022-09-09T07:37:56;6.55;;;1.00;;
24559;SDS011;12727;49.934;8.656;2022-09-09T07:40:22;7.35;;;0.90;;
24559;SDS011;12727;49.934;8.656;2022-09-09T07:42:48;6.25;;;0.85;;
24559;SDS011;12727;49.934;8.656;2022-09-09T07:45:14;6.40;;;1.10;;
24559;SDS011;12727;49.934;8.656;2022-09-09T07:47:40;3.92;;;1.05;;
24559;SDS011;12727;49.934;8.656;2022-09-09T07:50:07;6.55;;;1.10;;
24559;SDS011;12727;49.934;8.656;2022-09-09T07:52:34;6.35;;;0.85;;
24559;SDS011;12727;49.934;8.656;2022-09-09T07:55:00;5.45;;;1.10;;
24559;SDS011;12727;49.934;8.656;2022-09-09T07:57:27;4.72;;;0.70;;
24559;SDS011;12727;49.934;8.656;2022-09-09T07:59:55;4.45;;;0.90;;
24559;SDS011;12727;49.934;8.656;2022-09-09T08:02:21;8.38;;;1.17;;
24559;SDS011;12727;49.934;8.656;2022-09-09T08:04:48;3.25;;;0.80;;
24559;SDS011;12727;49.934;8.656;2022-09-09T08:07:13;5.53;;;1.30;;
24559;SDS011;12727;49.934;8.656;2022-09-09T08:09:39;5.90;;;1.13;;
24559;SDS011;12727;49.934;8.656;2022-09-09T08:12:05;4.50;;;0.90;;
24559;SDS011;12727;49.934;8.656;2022-09-09T08:14:33;6.50;;;1.00;;
24559;SDS011;12727;49.934;8.656;2022-09-09T08:16:59;5.35;;;1.05;;
24559;SDS011;12727;49.934;8.656;2022-09-09T08:19:25;3.15;;;0.90;;
24559;SDS011;12727;49.934;8.656;2022-09-09T08:21:51;3.42;;;0.77;;
24559;SDS011;12727;49.934;8.656;2022-09-09T08:24:19;6.78;;;1.20;;
24559;SDS011;12727;49.934;8.656;2022-09-09T08:26:45;6.25;;;0.80;;
24559;SDS011;12727;49.934;8.656;2022-09-09T08:29:15;5.88;;;1.00;;
24559;SDS011;12727;49.934;8.656;2022-09-09T08:31:43;4.90;;;0.95;;
24559;SDS011;12727;49.934;8.656;2022-09-09T08:34:10;6.13;;;1.05;;
24559;SDS011;12727;49.934;8.656;2022-09-09T08:36:37;5.55;;;1.08;;
24559;SDS011;12727;49.934;8.656;2022-09-09T08:39:07;5.38;;;1.10;;
24559;SDS011;12727;49.934;8.656;2022-09-09T08:49:43;4.22;;;0.80;;
24559;SDS011;12727;49.934;8.656;2022-09-09T08:55:37;3.50;;;0.75;;
24559;SDS011;12727;49.934;8.656;2022-09-09T08:58:25;5.78;;;1.02;;
24559;SDS011;12727;49.934;8.656;2022-09-09T09:03:57;5.38;;;0.90;;
24559;SDS011;12727;49.934;8.656;2022-09-09T09:12:11;5.38;;;0.98;;
24559;SDS011;12727;49.934;8.656;2022-09-09T09:14:44;7.10;;;0.95;;
24559;SDS011;12727;49.934;8.656;2022-09-09T09:17:13;3.42;;;0.77;;
24559;SDS011;12727;49.934;8.656;2022-09-09T09:19:42;6.03;;;1.20;;
24559;SDS011;12727;49.934;8.656;2022-09-09T09:27:31;5.63;;;1.13;;
24559;SDS011;12727;49.934;8.656;2022-09-09T09:29:58;6.03;;;1.13;;
24559;SDS011;12727;49.934;8.656;2022-09-09T09:32:26;7.57;;;1.55;;
24559;SDS011;12727;49.934;8.656;2022-09-09T09:34:58;4.47;;;1.00;;
24559;SDS011;12727;49.934;8.656;2022-09-09T09:37:30;4.38;;;1.10;;
24559;SDS011;12727;49.934;8.656;2022-09-09T09:40:13;4.70;;;1.05;;
24559;SDS011;12727;49.934;8.656;2022-09-09T09:42:48;3.55;;;0.82;;
24559;SDS011;12727;49.934;8.656;2022-09-09T09:45:17;8.27;;;1.00;;
24559;SDS011;12727;49.934;8.656;2022-09-09T09:48:00;6.22;;;1.13;;
24559;SDS011;12727;49.934;8.656;2022-09-09T09:50:31;6.55;;;1.13;;
24559;SDS011;12727;49.934;8.656;2022-09-09T09:52:59;5.97;;;1.00;;
24559;SDS011;12727;49.934;8.656;2022-09-09T09:55:28;6.57;;;1.00;;
24559;SDS011;12727;49.934;8.656;2022-09-09T09:58:05;6.78;;;0.98;;
24559;SDS011;12727;49.934;8.656;2022-09-09T10:00:32;4.20;;;0.75;;
24559;SDS011;12727;49.934;8.656;2022-09-09T10:03:00;5.10;;;0.90;;
24559;SDS011;12727;49.934;8.656;2022-09-09T10:05:29;4.30;;;0.80;;
24559;SDS011;12727;49.934;8.656;2022-09-09T10:08:00;2.55;;;0.70;;
24559;SDS011;12727;49.934;8.656;2022-09-09T10:13:34;4.80;;;0.82;;
24559;SDS011;12727;49.934;8.656;2022-09-09T10:18:59;5.50;;;0.80;;
24559;SDS011;12727;49.934;8.656;2022-09-09T10:21:31;5.28;;;0.90;;
24559;SDS011;12727;49.934;8.656;2022-09-09T10:33:24;4.38;;;0.80;;
24559;SDS011;12727;49.934;8.656;2022-09-09T10:38:51;5.78;;;0.93;;
24559;SDS011;12727;49.934;8.656;2022-09-09T10:55:43;6.03;;;0.70;;
24559;SDS011;12727;49.934;8.656;2022-09-09T11:00:59;6.45;;;0.82;;
24559;SDS011;12727;49.934;8.656;2022-09-09T11:03:32;3.63;;;0.63;;
24559;SDS011;12727;49.934;8.656;2022-09-09T11:06:02;4.80;;;0.88;;
24559;SDS011;12727;49.934;8.656;2022-09-09T11:08:29;5.05;;;1.05;;
24559;SDS011;12727;49.934;8.656;2022-09-09T11:13:37;5.20;;;1.10;;
24559;SDS011;12727;49.934;8.656;2022-09-09T11:16:20;7.15;;;1.17;;
24559;SDS011;12727;49.934;8.656;2022-09-09T11:24:16;4.13;;;0.93;;
24559;SDS011;12727;49.934;8.656;2022-09-09T11:26:52;9.07;;;1.30;;
24559;SDS011;12727;49.934;8.656;2022-09-09T11:35:50;5.40;;;1.10;;
24559;SDS011;12727;49.934;8.656;2022-09-09T11:40:53;5.47;;;1.10;;
24559;SDS011;12727;49.934;8.656;2022-09-09T11:43:46;5.30;;;0.70;;
24559;SDS011;12727;49.934;8.656;2022-09-09T11:46:13;2.83;;;1.02;;
24559;SDS011;12727;49.934;8.656;2022-09-09T11:48:45;5.70;;;0.68;;
24559;SDS011;12727;49.934;8.656;2022-09-09T11:54:02;4.97;;;1.05;;
24559;SDS011;12727;49.934;8.656;2022-09-09T11:59:22;5.75;;;0.95;;
24559;SDS011;12727;49.934;8.656;2022-09-09T12:04:49;4.07;;;0.68;;
24559;SDS011;12727;49.934;8.656;2022-09-09T12:10:19;7.00;;;0.82;;
24559;SDS011;12727;49.934;8.656;2022-09-09T12:12:45;3.17;;;0.70;;
24559;SDS011;12727;49.934;8.656;2022-09-09T12:17:41;3.88;;;0.70;;
24559;SDS011;12727;49.934;8.656;2022-09-09T12:28:26;5.33;;;0.80;;
24559;SDS011;12727;49.934;8.656;2022-09-09T12:31:06;4.38;;;1.00;;
24559;SDS011;12727;49.934;8.656;2022-09-09T12:33:43;3.17;;;0.85;;
24559;SDS011;12727;49.934;8.656;2022-09-09T12:36:13;4.43;;;0.90;;
24559;SDS011;12727;49.934;8.656;2022-09-09T12:38:42;3.22;;;0.90;;
24559;SDS011;12727;49.934;8.656;2022-09-09T12:43:49;7.05;;;0.80;;
24559;SDS011;12727;49.934;8.656;2022-09-09T12:46:29;3.47;;;0.77;;
24559;SDS011;12727;49.934;8.656;2022-09-09T12:49:26;3.83;;;1.00;;
24559;SDS011;12727;49.934;8.656;2022-09-09T12:52:01;3.45;;;0.50;;
24559;SDS011;12727;49.934;8.656;2022-09-09T12:54:30;2.25;;;0.47;;
24559;SDS011;12727;49.934;8.656;2022-09-09T12:56:57;2.13;;;0.40;;
24559;SDS011;12727;49.934;8.656;2022-09-09T12:59:24;1.23;;;0.40;;
24559;SDS011;12727;49.934;8.656;2022-09-09T13:02:01;2.55;;;0.40;;
24559;SDS011;12727;49.934;8.656;2022-09-09T13:04:26;2.92;;;0.60;;
24559;SDS011;12727;49.934;8.656;2022-09-09T13:06:52;3.55;;;0.30;;
24559;SDS011;12727;49.934;8.656;2022-09-09T13:09:18;1.00;;;0.10;;
24559;SDS011;12727;49.934;8.656;2022-09-09T13:11:52;1.30;;;0.20;;
24559;SDS011;12727;49.934;8.656;2022-09-09T13:14:28;1.20;;;0.10;;
24559;SDS011;12727;49.934;8.656;2022-09-09T13:17:01;0.20;;;0.10;;
24559;SDS011;12727;49.934;8.656;2022-09-09T13:24:58;0.93;;;0.20;;
24559;SDS011;12727;49.934;8.656;2022-09-09T13:27:54;2.20;;;0.20;;
24559;SDS011;12727;49.934;8.656;2022-09-09T13:30:27;0.68;;;0.10;;
24559;SDS011;12727;49.934;8.656;2022-09-09T13:35:46;2.22;;;0.30;;
24559;SDS011;12727;49.934;8.656;2022-09-09T13:38:19;1.27;;;0.20;;
24559;SDS011;12727;49.934;8.656;2022-09-09T13:40:56;0.65;;;0.20;;
24559;SDS011;12727;49.934;8.656;2022-09-09T13:43:30;1.98;;;0.20;;
24559;SDS011;12727;49.934;8.656;2022-09-09T13:45:59;1.45;;;0.25;;
24559;SDS011;12727;49.934;8.656;2022-09-09T13:48:27;2.13;;;0.40;;
24559;SDS011;12727;49.934;8.656;2022-09-09T13:50:59;2.40;;;0.30;;
24559;SDS011;12727;49.934;8.656;2022-09-09T13:53:26;2.33;;;0.45;;
24559;SDS011;12727;49.934;8.656;2022-09-09T13:55:53;3.00;;;0.30;;
24559;SDS011;12727;49.934;8.656;2022-09-09T13:58:19;2.75;;;0.28;;
24559;SDS011;12727;49.934;8.656;2022-09-09T14:00:46;2.45;;;0.17;;
24559;SDS011;12727;49.934;8.656;2022-09-09T14:03:12;1.23;;;0.20;;
24559;SDS011;12727;49.934;8.656;2022-09-09T14:05:38;2.53;;;0.40;;
24559;SDS011;12727;49.934;8.656;2022-09-09T14:08:05;4.57;;;0.45;;
24559;SDS011;12727;49.934;8.656;2022-09-09T14:10:32;1.35;;;0.28;;
24559;SDS011;12727;49.934;8.656;2022-09-09T14:13:02;1.38;;;0.30;;
24559;SDS011;12727;49.934;8.656;2022-09-09T14:15:28;2.38;;;0.30;;
24559;SDS011;12727;49.934;8.656;2022-09-09T14:17:53;3.67;;;0.20;;
24559;SDS011;12727;49.934;8.656;2022-09-09T14:20:20;2.17;;;0.25;;
24559;SDS011;12727;49.934;8.656;2022-09-09T14:22:45;1.35;;;0.20;;
24559;SDS011;12727;49.934;8.656;2022-09-09T14:25:11;3.42;;;0.32;;
24559;SDS011;12727;49.934;8.656;2022-09-09T14:27:38;2.50;;;0.22;;
24559;SDS011;12727;49.934;8.656;2022-09-09T14:30:04;3.20;;;0.30;;
24559;SDS011;12727;49.934;8.656;2022-09-09T14:32:30;2.97;;;0.50;;
24559;SDS011;12727;49.934;8.656;2022-09-09T14:34:56;3.45;;;0.60;;
24559;SDS011;12727;49.934;8.656;2022-09-09T14:37:22;2.40;;;0.40;;
24559;SDS011;12727;49.934;8.656;2022-09-09T14:39:47;3.40;;;0.40;;
24559;SDS011;12727;49.934;8.656;2022-09-09T14:42:15;3.13;;;0.60;;
24559;SDS011;12727;49.934;8.656;2022-09-09T14:44:41;3.20;;;0.40;;
24559;SDS011;12727;49.934;8.656;2022-09-09T14:47:07;3.15;;;0.47;;
24559;SDS011;12727;49.934;8.656;2022-09-09T14:49:33;2.60;;;0.43;;
24559;SDS011;12727;49.934;8.656;2022-09-09T14:52:00;4.45;;;0.60;;
24559;SDS011;12727;49.934;8.656;2022-09-09T14:54:26;4.18;;;0.60;;
24559;SDS011;12727;49.934;8.656;2022-09-09T14:56:51;4.22;;;0.80;;
24559;SDS011;12727;49.934;8.656;2022-09-09T14:59:17;4.15;;;0.50;;
24559;SDS011;12727;49.934;8.656;2022-09-09T15:01:42;3.28;;;0.65;;
24559;SDS011;12727;49.934;8.656;2022-09-09T15:04:10;1.70;;;0.50;;
24559;SDS011;12727;49.934;8.656;2022-09-09T15:06:39;2.65;;;0.45;;
24559;SDS011;12727;49.934;8.656;2022-09-09T15:09:06;3.30;;;0.52;;
24559;SDS011;12727;49.934;8.656;2022-09-09T15:11:35;3.35;;;0.50;;
24559;SDS011;12727;49.934;8.656;2022-09-09T15:14:03;4.75;;;0.43;;
24559;SDS011;12727;49.934;8.656;2022-09-09T15:16:30;2.88;;;0.60;;
24559;SDS011;12727;49.934;8.656;2022-09-09T15:18:57;3.60;;;0.40;;
24559;SDS011;12727;49.934;8.656;2022-09-09T15:21:25;2.58;;;0.50;;
24559;SDS011;12727;49.934;8.656;2022-09-09T15:23:53;2.00;;;0.40;;
24559;SDS011;12727;49.934;8.656;2022-09-09T15:26:19;3.05;;;0.40;;
24559;SDS011;12727;49.934;8.656;2022-09-09T15:28:46;3.60;;;0.50;;
24559;SDS011;12727;49.934;8.656;2022-09-09T15:31:30;2.15;;;0.40;;
24559;SDS011;12727;49.934;8.656;2022-09-09T15:34:02;2.42;;;0.47;;
24559;SDS011;12727;49.934;8.656;2022-09-09T15:38:59;1.42;;;0.40;;
24559;SDS011;12727;49.934;8.656;2022-09-09T15:41:26;1.92;;;0.40;;
24559;SDS011;12727;49.934;8.656;2022-09-09T15:43:53;2.67;;;0.60;;
24559;SDS011;12727;49.934;8.656;2022-09-09T15:48:56;3.88;;;0.50;;
24559;SDS011;12727;49.934;8.656;2022-09-09T15:51:26;3.42;;;0.60;;
24559;SDS011;12727;49.934;8.656;2022-09-09T15:53:56;2.50;;;0.40;;
24559;SDS011;12727;49.934;8.656;2022-09-09T15:56:25;3.22;;;0.68;;
24559;SDS011;12727;49.934;8.656;2022-09-09T15:58:52;2.97;;;0.40;;
24559;SDS011;12727;49.934;8.656;2022-09-09T16:01:18;2.75;;;0.50;;
24559;SDS011;12727;49.934;8.656;2022-09-09T16:03:44;2.83;;;0.52;;
24559;SDS011;12727;49.934;8.656;2022-09-09T16:06:15;4.32;;;0.82;;
24559;SDS011;12727;49.934;8.656;2022-09-09T16:08:43;1.85;;;0.50;;
24559;SDS011;12727;49.934;8.656;2022-09-09T16:11:15;3.50;;;0.63;;
24559;SDS011;12727;49.934;8.656;2022-09-09T16:13:46;2.50;;;0.47;;
24559;SDS011;12727;49.934;8.656;2022-09-09T16:16:13;2.90;;;0.63;;
24559;SDS011;12727;49.934;8.656;2022-09-09T16:18:44;3.42;;;0.63;;
24559;SDS011;12727;49.934;8.656;2022-09-09T16:21:13;4.03;;;0.60;;
24559;SDS011;12727;49.934;8.656;2022-09-09T16:23:46;2.92;;;0.60;;
24559;SDS011;12727;49.934;8.656;2022-09-09T16:26:14;2.38;;;0.60;;
24559;SDS011;12727;49.934;8.656;2022-09-09T16:28:41;4.10;;;0.50;;
24559;SDS011;12727;49.934;8.656;2022-09-09T16:31:08;2.40;;;0.55;;
24559;SDS011;12727;49.934;8.656;2022-09-09T16:33:35;1.25;;;0.47;;
24559;SDS011;12727;49.934;8.656;2022-09-09T16:36:12;1.60;;;0.40;;
24559;SDS011;12727;49.934;8.656;2022-09-09T16:38:40;3.33;;;0.65;;
24559;SDS011;12727;49.934;8.656;2022-09-09T16:41:09;2.30;;;0.35;;
24559;SDS011;12727;49.934;8.656;2022-09-09T16:43:36;4.53;;;0.60;;
24559;SDS011;12727;49.934;8.656;2022-09-09T16:46:03;3.30;;;0.45;;
24559;SDS011;12727;49.934;8.656;2022-09-09T16:48:40;2.50;;;0.60;;
24559;SDS011;12727;49.934;8.656;2022-09-09T16:51:09;2.53;;;0.47;;
24559;SDS011;12727;49.934;8.656;2022-09-09T16:53:42;1.35;;;0.30;;
24559;SDS011;12727;49.934;8.656;2022-09-09T16:56:15;3.70;;;0.50;;
24559;SDS011;12727;49.934;8.656;2022-09-09T16:58:48;2.45;;;0.60;;
24559;SDS011;12727;49.934;8.656;2022-09-09T17:01:15;1.55;;;0.50;;
24559;SDS011;12727;49.934;8.656;2022-09-09T17:03:41;3.60;;;0.50;;
24559;SDS011;12727;49.934;8.656;2022-09-09T17:06:10;3.08;;;0.55;;
24559;SDS011;12727;49.934;8.656;2022-09-09T17:08:40;1.80;;;0.40;;
24559;SDS011;12727;49.934;8.656;2022-09-09T17:11:16;1.23;;;0.50;;
24559;SDS011;12727;49.934;8.656;2022-09-09T17:13:43;3.65;;;0.30;;
24559;SDS011;12727;49.934;8.656;2022-09-09T17:16:10;4.80;;;0.47;;
24559;SDS011;12727;49.934;8.656;2022-09-09T17:18:37;3.78;;;0.52;;
24559;SDS011;12727;49.934;8.656;2022-09-09T17:21:08;3.13;;;0.68;;
24559;SDS011;12727;49.934;8.656;2022-09-09T17:23:36;2.77;;;0.60;;
24559;SDS011;12727;49.934;8.656;2022-09-09T17:26:03;2.38;;;0.30;;
24559;SDS011;12727;49.934;8.656;2022-09-09T17:28:34;2.67;;;0.52;;
24559;SDS011;12727;49.934;8.656;2022-09-09T17:31:01;3.33;;;0.50;;
24559;SDS011;12727;49.934;8.656;2022-09-09T17:33:29;3.45;;;0.50;;